Pinellas Park, FL (33780)

3:16 AM EST on February 06, 2016 (GMT -0500)
Bonnie Glynn | | Change Station
CLOSE
Current Station
Personal Weather Station
Location: Pinellas Park, FL
Elevation: 14 ft
Nearby Weather Stations

Elev 14 ft 27.83 °N, 82.74 °W | Updated 10 seconds ago

Partly Cloudy
Partly Cloudy
51.1 °F
Feels Like 51.1 °F
N
6.5
Wind Variable Wind from North
Gusts 6.5 mph

Today
High -- | Low -- °F
--% Chance of Precip.
Yesterday
High -- | Low -- °F
Precip. -- in
Pressure 30.20 in
Visibility 10.0 miles
Clouds Scattered Clouds 5000 ft
Dew Point 36 °F
Humidity 57%
Rainfall 0.00 in
Snow Depth Not available.
7:15 AM 6:15 PM
Waning Crescent, 7% visible
METAR KPIE 060753Z AUTO 03011G20KT 10SM SCT050 09/04 A3020 RMK AO2 SLP225 T00940039
Pressure 30.20 in
Visibility 10.0 miles
Clouds Scattered Clouds 5000 ft
Dew Point 36 °F
Humidity 57%
Rainfall 0.00 in
Snow Depth Not available.
7:15 AM 6:15 PM
Waning Crescent, 7% visible
METAR KPIE 060753Z AUTO 03011G20KT 10SM SCT050 09/04 A3020 RMK AO2 SLP225 T00940039

10-Day Weather Forecast

Almanac

Astronomy

Feb. 06, 2016 Rise Set
Actual Time
Civil Twilight
Nautical Twilight
Astronomical Twilight
Moon
Length of Visible Light
Length of Day
Tomorrow will be .
, % of the Moon is Illuminated

Today's Extremes

State Highs State Lows

Community

WunderPhotos

Upload Photos

1,890,933 photos uploaded!

WunderBlog® & News

Nearby

Air Quality

  Air Quality AQ Index Pollutant
Not available.

Snow Depth

Station Depth Elevation

Earthquake Activity

City Distance Mag. Time & Date
Minimum magnitude displayed is 2.5.

Coastal Water Temperatures

Place Temperature

Stations

Nearby Weather Stations

Station Location Temp. Windchill Dew Point Humidity Wind Precip. Elev Updated Type
                   

Watches & Warnings

There are currently no watches in effect.